createdAt,value
2022-10-24T00:01:28.210Z,8.37
2022-10-24T00:03:55.583Z,8.67
2022-10-24T00:06:23.203Z,12.03
2022-10-24T00:08:50.981Z,11.57
2022-10-24T00:11:24.367Z,11.17
2022-10-24T00:13:53.537Z,12.10
2022-10-24T00:16:21.104Z,12.53
2022-10-24T00:18:51.933Z,13.83
2022-10-24T00:21:19.231Z,15.33
2022-10-24T00:23:47.129Z,16.90
2022-10-24T00:26:15.044Z,22.87
2022-10-24T00:28:42.441Z,25.33
2022-10-24T00:31:14.716Z,22.27
2022-10-24T00:33:43.900Z,20.83
2022-10-24T00:36:13.610Z,19.60
2022-10-24T00:38:41.166Z,19.20
2022-10-24T00:41:08.500Z,20.10
2022-10-24T00:43:36.904Z,19.93
2022-10-24T00:46:05.234Z,21.70
2022-10-24T00:48:49.652Z,20.43
2022-10-24T00:51:21.787Z,22.63
2022-10-24T00:53:53.383Z,17.30
2022-10-24T00:56:26.780Z,15.33
2022-10-24T00:58:57.269Z,14.00
2022-10-24T01:01:26.861Z,13.60
2022-10-24T01:03:54.459Z,15.03
2022-10-24T01:06:31.357Z,16.03
2022-10-24T01:09:16.669Z,14.67
2022-10-24T01:11:52.313Z,12.80
2022-10-24T01:14:32.069Z,14.13
2022-10-24T01:17:18.252Z,13.27
2022-10-24T01:20:03.736Z,15.37
2022-10-24T01:22:45.583Z,17.40
2022-10-24T01:25:22.917Z,16.20
2022-10-24T01:28:08.289Z,14.27
2022-10-24T01:30:47.149Z,12.73
2022-10-24T01:33:37.113Z,13.57
2022-10-24T01:36:22.182Z,14.97
2022-10-24T01:38:56.115Z,15.60
2022-10-24T01:41:27.445Z,16.43
2022-10-24T01:44:06.574Z,12.80
2022-10-24T01:46:40.196Z,11.73
2022-10-24T01:49:16.355Z,12.23
2022-10-24T01:51:46.304Z,12.33
2022-10-24T01:54:15.018Z,11.63
2022-10-24T01:56:42.298Z,10.47
2022-10-24T01:59:29.479Z,10.63
2022-10-24T02:02:02.276Z,13.67
2022-10-24T02:04:33.027Z,12.67
2022-10-24T02:07:04.579Z,12.77
2022-10-24T02:09:35.358Z,12.60
2022-10-24T02:12:03.375Z,12.43
2022-10-24T02:14:54.283Z,12.80
2022-10-24T02:17:21.623Z,12.27
2022-10-24T02:19:49.462Z,12.97
2022-10-24T02:22:30.917Z,10.97
2022-10-24T02:25:03.498Z,10.60
2022-10-24T02:27:43.513Z,10.43
2022-10-24T02:30:21.154Z,10.53
2022-10-24T02:32:55.442Z,10.77
2022-10-24T02:35:30.246Z,10.50
2022-10-24T02:38:06.977Z,9.93
2022-10-24T02:40:35.312Z,10.20
2022-10-24T02:43:04.554Z,10.43
2022-10-24T02:45:33.234Z,10.37
2022-10-24T02:48:04.718Z,12.73
2022-10-24T02:50:33.307Z,13.10
2022-10-24T02:53:00.769Z,13.00
2022-10-24T02:55:28.620Z,12.80
2022-10-24T02:57:55.952Z,11.73
2022-10-24T03:00:23.301Z,11.90
2022-10-24T03:02:51.086Z,12.07
2022-10-24T03:05:18.589Z,13.57
2022-10-24T03:07:46.267Z,12.67
2022-10-24T03:10:13.963Z,12.63
2022-10-24T03:12:41.378Z,12.70
2022-10-24T03:15:09.228Z,12.00
2022-10-24T03:17:36.800Z,12.27
2022-10-24T03:20:04.557Z,12.47
2022-10-24T03:22:31.913Z,12.97
2022-10-24T03:25:02.635Z,11.70
2022-10-24T03:27:30.918Z,12.87
2022-10-24T03:29:58.351Z,12.47
2022-10-24T03:34:54.205Z,11.97
2022-10-24T03:37:21.627Z,11.10
2022-10-24T03:39:49.932Z,11.70
2022-10-24T03:42:17.186Z,11.70
2022-10-24T03:44:44.614Z,13.23
2022-10-24T03:47:12.202Z,15.13
2022-10-24T03:49:39.774Z,12.77
2022-10-24T03:52:08.346Z,12.33
2022-10-24T03:54:37.351Z,12.30
2022-10-24T03:57:05.010Z,12.40
2022-10-24T03:59:32.369Z,12.17
2022-10-24T04:02:01.806Z,11.73
2022-10-24T04:04:29.523Z,11.33
2022-10-24T04:06:57.096Z,10.13
2022-10-24T04:09:24.526Z,9.33
2022-10-24T04:11:53.716Z,9.60
2022-10-24T04:14:21.787Z,8.33
2022-10-24T04:16:49.318Z,8.83
2022-10-24T04:19:20.372Z,8.33
2022-10-24T04:21:48.333Z,7.80
2022-10-24T04:24:16.244Z,8.03
2022-10-24T04:26:43.843Z,7.30
2022-10-24T04:29:11.403Z,6.90
2022-10-24T04:31:38.753Z,7.10
2022-10-24T04:34:06.550Z,7.37
2022-10-24T04:36:35.109Z,6.83
2022-10-24T04:39:02.856Z,7.03
2022-10-24T04:41:30.262Z,6.03
2022-10-24T04:43:57.713Z,5.83
2022-10-24T04:46:25.596Z,7.13
2022-10-24T04:48:54.035Z,7.50
2022-10-24T04:51:22.627Z,7.10
2022-10-24T04:53:51.235Z,6.97
2022-10-24T04:56:20.256Z,7.83
2022-10-24T04:58:47.981Z,19.30
2022-10-24T05:01:15.338Z,20.73
2022-10-24T05:03:42.639Z,18.50
2022-10-24T05:06:09.952Z,9.80
2022-10-24T05:08:37.598Z,8.57
2022-10-24T05:11:05.045Z,8.13
2022-10-24T05:13:35.831Z,8.20
2022-10-24T05:16:05.310Z,7.53
2022-10-24T05:18:33.098Z,7.17
2022-10-24T05:21:01.232Z,7.67
2022-10-24T05:23:28.966Z,21.73
2022-10-24T05:25:56.239Z,42.97
2022-10-24T05:28:23.728Z,15.40
2022-10-24T05:30:51.027Z,33.40
2022-10-24T05:33:18.442Z,42.97
2022-10-24T05:35:45.854Z,91.77
2022-10-24T05:38:13.156Z,11.37
2022-10-24T05:40:40.452Z,9.03
2022-10-24T05:43:07.700Z,7.37
2022-10-24T05:45:35.512Z,8.13
2022-10-24T05:48:02.888Z,8.53
2022-10-24T05:50:31.390Z,9.00
2022-10-24T05:52:58.649Z,11.93
2022-10-24T05:55:25.933Z,24.03
2022-10-24T05:57:53.646Z,11.07
2022-10-24T06:00:23.577Z,8.90
2022-10-24T06:02:50.922Z,12.07
2022-10-24T06:05:18.697Z,9.53
2022-10-24T06:07:46.370Z,24.63
2022-10-24T06:10:14.459Z,22.67
2022-10-24T06:12:42.732Z,50.47
2022-10-24T06:15:11.278Z,89.23
2022-10-24T06:17:38.510Z,96.13
2022-10-24T06:20:06.511Z,40.23
2022-10-24T06:22:33.837Z,37.53
2022-10-24T06:25:03.094Z,33.07
2022-10-24T06:27:30.531Z,23.57
2022-10-24T06:29:58.767Z,22.60
2022-10-24T06:32:26.191Z,21.47
2022-10-24T06:34:53.870Z,13.50
2022-10-24T06:37:21.227Z,13.97
2022-10-24T06:39:48.460Z,14.07
2022-10-24T06:42:15.764Z,15.80
2022-10-24T06:44:43.186Z,46.30
2022-10-24T06:47:10.842Z,18.50
2022-10-24T06:49:38.319Z,10.77
2022-10-24T06:52:05.665Z,13.93
2022-10-24T06:54:33.914Z,12.10
2022-10-24T06:57:01.480Z,16.67
2022-10-24T06:59:28.827Z,20.20
2022-10-24T07:01:56.332Z,15.93
2022-10-24T07:04:25.326Z,11.83
2022-10-24T07:06:53.090Z,10.67
2022-10-24T07:09:21.224Z,10.60
2022-10-24T07:11:48.747Z,11.70
2022-10-24T07:14:16.156Z,10.30
2022-10-24T07:16:43.650Z,8.27
2022-10-24T07:19:11.146Z,6.87
2022-10-24T07:21:38.781Z,5.33
2022-10-24T07:24:06.806Z,4.67
2022-10-24T07:26:34.062Z,5.20
2022-10-24T07:31:36.632Z,7.93
2022-10-24T07:34:07.168Z,13.53
2022-10-24T07:36:35.645Z,16.17
2022-10-24T07:39:05.370Z,12.37
2022-10-24T07:41:33.788Z,13.43
2022-10-24T07:44:04.053Z,14.17
2022-10-24T07:46:31.462Z,7.50
2022-10-24T07:48:59.077Z,6.67
2022-10-24T07:51:28.800Z,6.10
2022-10-24T07:53:57.939Z,7.80
2022-10-24T07:56:25.876Z,14.80
2022-10-24T07:58:53.398Z,7.23
2022-10-24T08:01:23.929Z,7.80
2022-10-24T08:03:51.440Z,9.57
2022-10-24T08:06:22.265Z,10.17
2022-10-24T08:08:50.031Z,7.40
2022-10-24T08:11:21.279Z,5.40
2022-10-24T08:13:50.066Z,4.77
2022-10-24T08:16:19.339Z,5.37
2022-10-24T08:18:46.865Z,6.27
2022-10-24T08:21:16.388Z,5.10
2022-10-24T08:23:46.486Z,5.07
2022-10-24T08:26:17.195Z,4.60
2022-10-24T08:28:44.854Z,7.27
2022-10-24T08:31:15.413Z,6.13
2022-10-24T08:33:43.445Z,6.30
2022-10-24T08:36:31.066Z,6.17
2022-10-24T08:38:59.746Z,4.93
2022-10-24T08:41:54.549Z,4.27
2022-10-24T08:44:28.883Z,4.20
2022-10-24T08:47:20.831Z,5.13
2022-10-24T08:49:54.870Z,3.97
2022-10-24T08:52:40.955Z,4.10
2022-10-24T08:55:50.344Z,4.03
2022-10-24T08:58:34.429Z,4.83
2022-10-24T09:01:05.535Z,14.87
2022-10-24T09:04:01.845Z,5.23
2022-10-24T09:06:32.542Z,12.87
2022-10-24T09:09:01.934Z,7.53
2022-10-24T09:12:01.569Z,10.10
2022-10-24T09:14:31.775Z,7.77
2022-10-24T09:17:15.737Z,3.20
2022-10-24T09:19:51.365Z,3.17
2022-10-24T09:22:19.599Z,3.87
2022-10-24T09:24:59.689Z,4.07
2022-10-24T09:27:31.177Z,3.20
2022-10-24T09:29:59.752Z,3.90
2022-10-24T09:32:32.865Z,3.90
2022-10-24T09:35:12.163Z,4.07
2022-10-24T09:37:55.502Z,2.53
2022-10-24T09:40:24.106Z,2.60
2022-10-24T09:43:15.723Z,2.90
2022-10-24T09:45:47.740Z,2.30
2022-10-24T09:48:56.021Z,6.22
2022-10-24T09:51:35.707Z,2.53
2022-10-24T09:54:19.951Z,3.88
2022-10-24T09:56:54.603Z,2.35
2022-10-24T09:59:33.264Z,2.30
2022-10-24T10:02:37.904Z,2.30
2022-10-24T10:05:05.289Z,2.58
2022-10-24T10:07:41.330Z,1.98
2022-10-24T10:10:38.018Z,2.20
2022-10-24T10:13:27.361Z,2.08
2022-10-24T10:16:01.062Z,1.85
2022-10-24T10:18:42.465Z,2.08
2022-10-24T10:21:20.133Z,1.40
2022-10-24T10:23:49.720Z,2.05
2022-10-24T10:26:30.798Z,1.27
2022-10-24T10:29:05.836Z,1.75
2022-10-24T10:31:47.020Z,1.70
2022-10-24T10:34:21.805Z,1.67
2022-10-24T10:37:20.537Z,1.80
2022-10-24T10:39:47.813Z,2.40
2022-10-24T10:42:32.294Z,1.77
2022-10-24T10:45:17.848Z,1.70
2022-10-24T10:47:47.898Z,1.70
2022-10-24T10:51:07.347Z,2.30
2022-10-24T10:53:42.648Z,1.70
2022-10-24T10:56:12.924Z,2.13
2022-10-24T10:59:01.754Z,2.22
2022-10-24T11:01:59.721Z,1.90
2022-10-24T11:04:37.957Z,2.05
2022-10-24T11:07:18.644Z,1.60
2022-10-24T11:10:00.420Z,1.40
2022-10-24T11:12:34.846Z,1.67
2022-10-24T11:15:14.508Z,9.35
2022-10-24T11:17:55.688Z,2.03
2022-10-24T11:20:28.968Z,1.52
2022-10-24T11:23:07.797Z,1.73
2022-10-24T11:25:46.798Z,1.63
2022-10-24T11:28:29.595Z,2.10
2022-10-24T11:31:14.051Z,1.38
2022-10-24T11:34:05.530Z,1.50
2022-10-24T11:36:53.490Z,1.70
2022-10-24T11:39:28.170Z,1.52
2022-10-24T11:41:55.589Z,2.75
2022-10-24T11:44:46.601Z,1.58
2022-10-24T11:47:26.193Z,1.88
2022-10-24T11:50:07.659Z,1.45
2022-10-24T11:52:52.020Z,1.27
2022-10-24T11:55:21.122Z,1.35
2022-10-24T11:57:57.890Z,1.55
2022-10-24T12:00:37.232Z,1.15
2022-10-24T12:03:21.930Z,1.33
2022-10-24T12:06:09.388Z,1.15
2022-10-24T12:08:57.912Z,1.00
2022-10-24T12:11:35.779Z,1.10
2022-10-24T12:14:27.347Z,1.52
2022-10-24T12:17:22.347Z,1.38
2022-10-24T12:19:51.006Z,1.40
2022-10-24T12:22:30.062Z,2.00
2022-10-24T12:25:17.694Z,1.25
2022-10-24T12:27:45.341Z,1.80
2022-10-24T12:30:21.925Z,1.80
2022-10-24T12:33:10.896Z,2.50
2022-10-24T12:35:47.737Z,1.60
2022-10-24T12:38:17.554Z,1.77
2022-10-24T12:40:52.632Z,1.27
2022-10-24T12:43:44.620Z,1.73
2022-10-24T12:46:23.148Z,1.40
2022-10-24T12:49:00.054Z,2.80
2022-10-24T12:51:31.288Z,1.27
2022-10-24T12:54:14.069Z,2.05
2022-10-24T12:56:51.482Z,1.77
2022-10-24T12:59:28.098Z,2.95
2022-10-24T13:02:14.010Z,2.53
2022-10-24T13:05:15.494Z,2.20
2022-10-24T13:08:16.469Z,4.70
2022-10-24T13:11:08.167Z,1.90
2022-10-24T13:13:44.445Z,3.05
2022-10-24T13:16:16.267Z,1.70
2022-10-24T13:19:22.461Z,1.40
2022-10-24T13:21:51.081Z,1.73
2022-10-24T13:24:20.245Z,1.45
2022-10-24T13:26:48.864Z,1.13
2022-10-24T13:29:27.386Z,1.52
2022-10-24T13:32:06.719Z,1.60
2022-10-24T13:34:55.212Z,1.20
2022-10-24T13:37:30.277Z,1.23
2022-10-24T13:40:16.147Z,1.30
2022-10-24T13:42:57.050Z,1.60
2022-10-24T13:45:53.248Z,1.92
2022-10-24T13:48:23.646Z,1.13
2022-10-24T13:51:03.717Z,1.40
2022-10-24T13:53:36.696Z,1.27
2022-10-24T13:56:10.941Z,1.75
2022-10-24T13:58:44.260Z,1.80
2022-10-24T14:01:22.472Z,1.55
2022-10-24T14:03:50.719Z,2.03
2022-10-24T14:06:31.820Z,2.00
2022-10-24T14:09:07.274Z,2.40
2022-10-24T14:11:39.443Z,1.92
2022-10-24T14:14:27.212Z,1.90
2022-10-24T14:17:35.796Z,2.42
2022-10-24T14:20:24.749Z,13.90
2022-10-24T14:22:52.431Z,10.95
2022-10-24T14:25:27.745Z,26.95
2022-10-24T14:27:59.035Z,30.95
2022-10-24T14:30:34.506Z,8.57
2022-10-24T14:33:21.233Z,2.80
2022-10-24T14:35:52.327Z,6.32
2022-10-24T14:38:23.308Z,3.87
2022-10-24T14:41:01.313Z,4.70
2022-10-24T14:43:36.541Z,3.27
2022-10-24T14:46:25.893Z,3.03
2022-10-24T14:48:55.033Z,2.43
2022-10-24T14:51:27.430Z,2.73
2022-10-24T14:53:55.524Z,4.27
2022-10-24T14:56:30.014Z,3.20
2022-10-24T14:58:58.976Z,2.73
2022-10-24T15:01:27.527Z,5.80
2022-10-24T15:04:06.104Z,6.47
2022-10-24T15:06:40.620Z,7.13
2022-10-24T15:09:17.920Z,8.35
2022-10-24T15:11:59.126Z,7.27
2022-10-24T15:14:40.501Z,5.60
2022-10-24T15:17:32.568Z,9.03
2022-10-24T15:20:02.904Z,12.93
2022-10-24T15:22:34.184Z,12.10
2022-10-24T15:27:49.606Z,17.53
2022-10-24T15:30:20.775Z,19.87
2022-10-24T15:32:49.777Z,23.30
2022-10-24T15:35:18.189Z,88.07
2022-10-24T15:38:19.069Z,28.07
2022-10-24T15:40:49.349Z,25.53
2022-10-24T15:43:19.071Z,21.50
2022-10-24T15:45:47.023Z,23.20
2022-10-24T15:48:14.497Z,19.87
2022-10-24T15:50:46.555Z,9.90
2022-10-24T15:53:22.996Z,17.70
2022-10-24T15:55:50.735Z,19.23
2022-10-24T15:58:18.643Z,12.47
2022-10-24T16:00:46.644Z,7.17
2022-10-24T16:03:17.931Z,5.43
2022-10-24T16:05:52.494Z,7.30
2022-10-24T16:08:20.414Z,7.50
2022-10-24T16:10:52.629Z,7.30
2022-10-24T16:13:22.327Z,9.60
2022-10-24T16:15:50.372Z,11.77
2022-10-24T16:18:17.631Z,9.20
2022-10-24T16:20:44.878Z,8.07
2022-10-24T16:23:15.763Z,5.70
2022-10-24T16:25:43.770Z,5.90
2022-10-24T16:28:15.505Z,6.27
2022-10-24T16:30:43.122Z,19.03
2022-10-24T16:33:10.711Z,33.23
2022-10-24T16:35:39.463Z,87.13
2022-10-24T16:38:09.306Z,69.20
2022-10-24T16:40:41.714Z,51.97
2022-10-24T16:43:11.669Z,45.77
2022-10-24T16:45:39.009Z,29.37
2022-10-24T16:48:07.094Z,23.67
2022-10-24T16:50:34.646Z,24.50
2022-10-24T16:53:04.978Z,26.53
2022-10-24T16:55:32.739Z,26.47
2022-10-24T16:58:00.245Z,33.00
2022-10-24T17:00:28.630Z,51.17
2022-10-24T17:02:58.275Z,31.73
2022-10-24T17:05:28.399Z,32.63
2022-10-24T17:07:56.350Z,39.07
2022-10-24T17:10:24.930Z,31.37
2022-10-24T17:12:53.406Z,45.97
2022-10-24T17:15:22.335Z,44.57
2022-10-24T17:17:50.605Z,32.87
2022-10-24T17:20:18.377Z,39.67
2022-10-24T17:22:46.738Z,41.70
2022-10-24T17:25:22.217Z,35.43
2022-10-24T17:27:50.486Z,23.97
2022-10-24T17:30:23.019Z,17.93
2022-10-24T17:32:50.819Z,17.20
2022-10-24T17:35:21.247Z,17.23
2022-10-24T17:38:21.776Z,15.20
2022-10-24T17:40:50.194Z,23.13
2022-10-24T17:43:26.484Z,59.10
2022-10-24T17:45:56.423Z,60.53
2022-10-24T17:48:24.630Z,56.50
2022-10-24T17:50:55.238Z,65.63
2022-10-24T17:53:22.549Z,63.63
2022-10-24T17:55:49.836Z,100.90
2022-10-24T17:58:17.172Z,198.23
2022-10-24T18:00:45.399Z,125.23
2022-10-24T18:03:13.102Z,138.17
2022-10-24T18:05:40.430Z,154.17
2022-10-24T18:08:09.816Z,91.37
2022-10-24T18:10:38.652Z,52.50
2022-10-24T18:13:06.841Z,44.80
2022-10-24T18:15:35.634Z,60.00
2022-10-24T18:18:03.797Z,54.10
2022-10-24T18:20:33.175Z,35.47
2022-10-24T18:23:01.002Z,30.53
2022-10-24T18:25:29.318Z,31.97
2022-10-24T18:27:57.224Z,30.70
2022-10-24T18:30:25.152Z,30.20
2022-10-24T18:32:52.393Z,31.80
2022-10-24T18:35:22.682Z,92.80
2022-10-24T18:40:23.602Z,45.47
2022-10-24T18:42:53.527Z,43.50
2022-10-24T18:45:24.051Z,45.73
2022-10-24T18:47:52.833Z,44.67
2022-10-24T18:50:24.277Z,42.03
2022-10-24T18:53:22.597Z,44.40
2022-10-24T18:55:50.823Z,17.47
2022-10-24T18:58:19.863Z,12.07
2022-10-24T19:00:48.475Z,15.43
2022-10-24T19:03:37.437Z,14.17
2022-10-24T19:06:17.746Z,13.10
2022-10-24T19:08:45.386Z,12.83
2022-10-24T19:11:15.014Z,15.40
2022-10-24T19:13:45.002Z,9.20
2022-10-24T19:16:19.262Z,6.93
2022-10-24T19:18:53.996Z,7.97
2022-10-24T19:21:23.328Z,18.43
2022-10-24T19:23:51.957Z,24.47
2022-10-24T19:26:19.634Z,17.40
2022-10-24T19:28:46.991Z,11.13
2022-10-24T19:31:15.335Z,11.93
2022-10-24T19:33:43.118Z,14.17
2022-10-24T19:36:14.339Z,10.40
2022-10-24T19:38:44.237Z,9.10
2022-10-24T19:41:12.041Z,10.30
2022-10-24T19:43:39.521Z,19.43
2022-10-24T19:46:19.428Z,20.73
2022-10-24T19:48:49.566Z,21.47
2022-10-24T19:51:18.796Z,28.37
2022-10-24T19:53:47.531Z,41.53
2022-10-24T19:56:25.398Z,33.20
2022-10-24T19:58:54.509Z,28.37
2022-10-24T20:01:25.033Z,23.80
2022-10-24T20:03:53.181Z,14.50
2022-10-24T20:06:20.419Z,14.87
2022-10-24T20:08:48.416Z,14.50
2022-10-24T20:11:16.716Z,13.20
2022-10-24T20:13:44.462Z,10.23
2022-10-24T20:16:12.432Z,8.70
2022-10-24T20:21:18.045Z,6.03
2022-10-24T20:23:47.731Z,5.00
2022-10-24T20:26:21.490Z,4.73
2022-10-24T20:28:51.257Z,4.50
2022-10-24T20:31:38.404Z,6.47
2022-10-24T20:34:10.937Z,7.33
2022-10-24T20:36:40.268Z,11.67
2022-10-24T20:39:08.822Z,14.30
2022-10-24T20:41:36.880Z,12.20
2022-10-24T20:44:07.314Z,10.77
2022-10-24T20:46:35.518Z,10.87
2022-10-24T20:49:03.383Z,12.03
2022-10-24T20:51:30.739Z,15.10
2022-10-24T20:53:58.208Z,11.43
2022-10-24T20:56:27.023Z,17.33
2022-10-24T20:58:55.810Z,29.90
2022-10-24T21:01:26.037Z,23.10
2022-10-24T21:03:55.222Z,25.97
2022-10-24T21:06:25.320Z,25.70
2022-10-24T21:08:54.657Z,24.47
2022-10-24T21:11:26.415Z,21.07
2022-10-24T21:13:55.583Z,21.27
2022-10-24T21:16:24.158Z,18.70
2022-10-24T21:18:51.859Z,14.63
2022-10-24T21:21:19.871Z,14.70
2022-10-24T21:24:03.927Z,18.87
2022-10-24T21:26:35.536Z,22.13
2022-10-24T21:29:14.564Z,18.47
2022-10-24T21:31:50.787Z,17.80
2022-10-24T21:34:19.031Z,21.00
2022-10-24T21:36:46.497Z,31.07
2022-10-24T21:39:15.330Z,44.37
2022-10-24T21:41:42.885Z,21.83
2022-10-24T21:44:10.794Z,13.37
2022-10-24T21:46:38.148Z,12.97
2022-10-24T21:49:05.463Z,12.33
2022-10-24T21:51:35.906Z,17.87
2022-10-24T21:54:06.324Z,17.67
2022-10-24T21:56:37.046Z,16.43
2022-10-24T21:59:06.671Z,14.50
2022-10-24T22:01:37.312Z,13.43
2022-10-24T22:04:05.770Z,14.00
2022-10-24T22:06:34.457Z,10.07
2022-10-24T22:09:02.425Z,13.30
2022-10-24T22:11:31.553Z,12.30
2022-10-24T22:13:59.414Z,12.87
2022-10-24T22:16:29.189Z,11.67
2022-10-24T22:18:59.063Z,10.27
2022-10-24T22:21:30.165Z,11.60
2022-10-24T22:24:03.800Z,10.87
2022-10-24T22:26:31.508Z,10.77
2022-10-24T22:28:58.886Z,11.00
2022-10-24T22:31:29.081Z,10.03
2022-10-24T22:33:57.778Z,8.73
2022-10-24T22:36:37.203Z,9.03
2022-10-24T22:39:05.635Z,8.50
2022-10-24T22:41:33.145Z,10.17
2022-10-24T22:44:00.577Z,10.90
2022-10-24T22:47:12.546Z,21.07
2022-10-24T22:50:06.467Z,19.37
2022-10-24T22:52:34.124Z,24.40
2022-10-24T22:55:03.917Z,25.33
2022-10-24T22:57:32.098Z,33.47
2022-10-24T22:59:59.582Z,22.00
2022-10-24T23:02:33.498Z,25.43
2022-10-24T23:05:19.357Z,20.37
2022-10-24T23:07:50.210Z,13.20
2022-10-24T23:10:22.778Z,14.43
2022-10-24T23:12:50.868Z,10.87
2022-10-24T23:15:20.784Z,8.00
2022-10-24T23:17:50.027Z,8.00
2022-10-24T23:20:35.681Z,9.20
2022-10-24T23:23:16.305Z,10.50
2022-10-24T23:25:50.538Z,9.73
2022-10-24T23:28:29.877Z,8.33
2022-10-24T23:30:57.622Z,9.80
2022-10-24T23:33:29.667Z,9.90
2022-10-24T23:36:00.782Z,10.20
2022-10-24T23:38:28.507Z,8.67
2022-10-24T23:40:56.215Z,7.33
2022-10-24T23:43:23.831Z,6.40
2022-10-24T23:46:02.451Z,8.90
2022-10-24T23:48:54.174Z,9.10
2022-10-24T23:51:28.478Z,8.20
2022-10-24T23:53:56.505Z,8.57
2022-10-24T23:56:28.775Z,9.67
2022-10-24T23:58:56.171Z,9.97
